Ride Results

Scenic City (05-11-2016)
Ride distance: 80.0 km

Outcomes - Scenic City (05-11-2016)
Division No. of Entries Retired / DNE Completed Withdrawn Ineligible V/O Percentage Completed
HW 10 - 6 - - 4 60.00%
MW 23 - 19 - - 4 82.61%
LW 21 - 18 1 - 2 85.71%
JN 5 - 4 - - 1 80.00%
Totals 59 - 47 1 - 11 79.66%
Results - Scenic City (05-11-2016)
No. Rider Horse Place Time Leg Speeds Total
Km/Hr
H/R bpm
Heavyweight
88 Alan West Tollarta 1 4:31:00 18.8, 16.2 17.71 35, 39, 44 (Avg:41)
31 Robert Catlin Avita 2 (BC) 4:31:05 18.7, 16.3 17.71 46, 50, 48 (Avg:49)
22 Gary Pevy Halimas Esdikarn 3 4:53:00 17.3, 15.1 16.38 30, 42, 40 (Avg:41)
35 Stuart Lymbery Garonne Park Walker 4 6:07:00 14.2, 11.6 13.08 45, 54, 52 (Avg:53)
99 Renee Gough Jon De Le Hazad 5 7:18:00 11.7, 9.9 10.96 35, 44, 54 (Avg:49)
38 Sue Warren Warren Park Mishaala 6 7:58:00 10.7, 9.1 10.04 33, 41, 50 (Avg:45)
50 Jolene Cole Baribo Lame L2 0:00:00 19.0, 15.4 - 33, 45, 46 (Avg:45)
28 Peter Norman Contessa Lame L2 0:00:00 12.7, 9.7 - 44, 44, 48 (Avg:46)
92 Marty Moran Forest Dale Xcalibur Lame L1 0:00:00 13.6 - 40, 45 (Avg:45)
23 Jasmine Thompson Shagrir's Gift Metabolics L1 0:00:00 14.9 - 46, 49 (Avg:49)
Middleweight
40 Clare Feary Die Kinder Junrei 1 (BC) 4:32:00 18.7, 16.2 17.65 39, 37, 43 (Avg:40)
36 Sarah Lymbery Aloha Desert Glitter 2 4:53:00 17.3, 15.1 16.38 35, 38, 47 (Avg:42)
79 Brad Dillon Banfield Khamsin 3 5:27:00 15.1, 14.0 14.68 39, 40, 47 (Avg:43)
74 Jessica Drain-Shepheard Thee Prophecy 4 5:38:00 14.4, 13.9 14.20 41, 51, 57 (Avg:54)
89 Lauren Stevenson Blake's Heaven Venus 5 5:48:00 15.4, 11.9 13.79 42, 47, 49 (Avg:48)
51 Gavin Peacock Eclipse 6 6:12:00 13.7, 11.7 12.90 41, 49, 48 (Avg:48)
11 Georgia Curry Mountain Breeze Just Annallusion 7 6:22:00 13.7, 11.1 12.57 41, 51, 42 (Avg:46)
27 Nicole Allan Webbs Creek Lawson 8 6:54:00 11.9, 11.1 11.59 39, 47, 40 (Avg:43)
26 Ben Hudson Bullio Solute 8 6:54:00 11.9, 11.1 11.59 43, 49, 54 (Avg:51)
30 Jesse Buchan Starlight 10 7:03:00 12.6, 9.7 11.35 44, 54, 44 (Avg:49)
41 Peter Bice Georgie Girl 11 7:08:00 12.5, 9.6 11.21 44, 42, 40 (Avg:41)
84 Annette Bailey Bullio Charlotte 12 7:17:00 11.9, 9.8 10.98 31, 40, 44 (Avg:42)
33 Rowena Robinson Karumba Nazrani 13 7:33:00 9.7, 12.1 10.60 34, 36, 36 (Avg:36)
53 Lizzy Cleland A'Landell King 14 7:37:00 10.6, 10.2 10.50 32, 41, 48 (Avg:44)
80 Daniel Noble Panache 15 7:57:00 11.9, 8.1 10.06 36, 37, 49 (Avg:43)
21 Noni Seagrim Coolinda Park Words of Wisdom 15 7:57:00 11.9, 8.1 10.06 36, 43, 54 (Avg:48)
100 Erin Steinbacher Star Cross Imperial 15 7:57:00 11.9, 8.1 10.06 32, 38, 59 (Avg:48)
39 Laurie Taylor Entourage Era 18 7:58:00 10.7, 9.1 10.04 39, 38, 41 (Avg:39)
25 Leanne Hickson Kharbo 19 8:00:00 10.7, 9.0 10.00 40, 51, 55 (Avg:53)
2 Anita Ashby Lentara Park Heather Metabolics L2 0:00:00 18.8, 15.1 - 46, 43, 42 (Avg:42)
94 Marisa Levitt Arabesque Winning Streak Heart Rate L1 0:00:00 12.9 - 43, 60 (Avg:60)
52 Deleni Walters Charadia Zignzag Lame L1 0:00:00 34.6 - 38, 44 (Avg:44)
49 Chris Geddes Coolahlee Park Shaman Heart Rate L1 2:31:00 19.0 19.07 28, 60 (Avg:60)
Lightweight
1 April Newman Taeaura Shayarnah 1 4:32:00 18.8, 16.1 17.65 42, 48, 52 (Avg:50)
10 Kristie Wright Brookleigh Shiralee 1 (BC) 4:32:00 19.1, 15.7 17.65 38, 40, 40 (Avg:40)
5 Clare Fleming Aloha Desert Thor 3 5:29:00 14.9, 14.0 14.59 38, 48, 49 (Avg:48)
6 Kali Curtis Blake's Heaven Carousel 4 5:49:00 15.4, 11.8 13.75 39, 49, 46 (Avg:47)
58 Louise Piddington Trazir Amir Rhazzikh 5 6:00:00 13.5, 12.9 13.33 29, 36, 42 (Avg:39)
75 Jenny Shepheard Currowan Jazzy 6 6:01:00 13.7, 12.7 13.30 34, 45, 49 (Avg:47)
77 Sorsha Stuart-Rokvic Oso Emelyne 7 6:22:00 13.8, 11.0 12.57 36, 51, 52 (Avg:51)
69 Monica Ballard Blake's Heaven Ventura 8 6:56:00 13.5, 9.4 11.54 34, 47, 51 (Avg:49)
4 Kaitlin Flynn Blake's Heaven Cinderella 8 6:56:00 13.5, 9.4 11.54 34, 50, 32 (Avg:41)
29 Shelly Ison Marcon Elafi 10 7:03:00 12.7, 9.7 11.35 29, 34, 53 (Avg:43)
93 Faith Robinson Espirit Serena 11 7:07:00 12.5, 9.7 11.24 41, 42, 42 (Avg:42)
16 Raelene Whitfield Raymar Malik 11 7:07:00 11.9, 10.3 11.24 36, 40, 46 (Avg:43)
70 Sue Todd Shakari Bear 13 7:08:00 12.5, 9.6 11.21 40, 47, 50 (Avg:48)
83 Elizabeth Moir Bullio Nasira 14 7:17:00 11.9, 9.8 10.98 42, 40, 37 (Avg:38)
54 Victoria Bice A'Landell Destiny 15 7:37:00 10.6, 10.2 10.50 40, 40, 47 (Avg:43)
24 Jacque Thoms Sotiris 16 8:00:00 10.7, 9.0 10.00 24, 41, 58 (Avg:49)
73 Cheny Collins Henley Farm Jidal 17 8:08:00 11.0, 8.4 9.84 35, 51, 46 (Avg:48)
72 Mary Hollingsworth FC Bejing 17 8:08:00 11.0, 8.4 9.84 40, 41, 47 (Avg:44)
7 Julie Hooper Delilah Lame L1 0:00:00 13.6 - 39, 46 (Avg:46)
12 Kim Noble Mizzi Couger Lame L1 0:00:00 11.1 - 34, 41 (Avg:41)
60 Vanessa Richardson Eminem Vyper Withdrawn L1 0:00:00 - - 35, 47 (Avg:47)
Junior
37 Laura Kelly Yinbilliko Shaka Zulu 1 (BC) 5:07:00 18.3, 12.7 15.64 41, 45, 44 (Avg:44)
76 Stacey Clarke Oso Bettina 2 6:22:00 13.8, 11.0 12.57 37, 44, 48 (Avg:46)
34 Gabrielle Worth Douglas 3 6:39:00 14.7, 9.4 12.03 31, 45, 49 (Avg:47)
32 Levi Robinson Karumba Beamish 4 7:33:00 9.7, 12.1 10.60 44, 41, 50 (Avg:45)
13 Alison Noble Sbara Shifter Metabolics L1 0:00:00 9.0 - 39, 43 (Avg:43)